Terminal Aerodrome Forecast
Issued by NWS Birmingham, AL

Home | Current Version | Previous Version | Text Only | Print | Product List | Glossary On
Versions: 1 2 3 4 5 6 7 8 9 10 11 12 13 14 15 16 17 18
464
FTUS44 KBMX 221934 AAA
TAFBHM
TAF AMD
KBHM 221934Z 2220/2318 15010G15KT 3SM TSRA BKN040CB BKN050
     FM222100 15005KT P6SM VCTS SCT040CB
     FM230100 22003KT P6SM BKN250
     FM230800 23005KT P6SM BKN050
     FM231500 32006KT P6SM VCTS BKN045CB=

USA.gov is the U.S. government's official web portal to all federal, state and local government web resources and services.